sensor_id;sensor_type;location;lat;lon;timestamp;P1;P2;P0
69123;PMS5003;56232;53.384;-2.732;2023-06-22T00:00:56;9;9;
69123;PMS5003;56232;53.384;-2.732;2023-06-22T00:03:22;7;6;
69123;PMS5003;56232;53.384;-2.732;2023-06-22T00:05:48;9;8;
69123;PMS5003;56232;53.384;-2.732;2023-06-22T00:08:13;9;9;
69123;PMS5003;56232;53.384;-2.732;2023-06-22T00:10:39;6;5;
69123;PMS5003;56232;53.384;-2.732;2023-06-22T00:13:05;5;5;
69123;PMS5003;56232;53.384;-2.732;2023-06-22T00:15:31;7;7;
69123;PMS5003;56232;53.384;-2.732;2023-06-22T00:17:56;8;8;
69123;PMS5003;56232;53.384;-2.732;2023-06-22T00:20:21;8;8;
69123;PMS5003;56232;53.384;-2.732;2023-06-22T00:22:47;8;8;
69123;PMS5003;56232;53.384;-2.732;2023-06-22T00:25:13;9;9;
69123;PMS5003;56232;53.384;-2.732;2023-06-22T00:27:38;7;7;
69123;PMS5003;56232;53.384;-2.732;2023-06-22T00:30:04;8;8;
69123;PMS5003;56232;53.384;-2.732;2023-06-22T00:32:29;10;9;
69123;PMS5003;56232;53.384;-2.732;2023-06-22T00:34:55;7;7;
69123;PMS5003;56232;53.384;-2.732;2023-06-22T00:37:20;8;7;
69123;PMS5003;56232;53.384;-2.732;2023-06-22T00:39:46;8;7;
69123;PMS5003;56232;53.384;-2.732;2023-06-22T00:42:12;6;6;
69123;PMS5003;56232;53.384;-2.732;2023-06-22T00:44:37;7;6;
69123;PMS5003;56232;53.384;-2.732;2023-06-22T00:47:03;6;6;
69123;PMS5003;56232;53.384;-2.732;2023-06-22T00:49:29;9;8;
69123;PMS5003;56232;53.384;-2.732;2023-06-22T00:51:54;8;8;
69123;PMS5003;56232;53.384;-2.732;2023-06-22T00:54:19;10;10;
69123;PMS5003;56232;53.384;-2.732;2023-06-22T00:56:45;10;10;
69123;PMS5003;56232;53.384;-2.732;2023-06-22T00:59:10;9;8;
69123;PMS5003;56232;53.384;-2.732;2023-06-22T01:01:36;9;8;
69123;PMS5003;56232;53.384;-2.732;2023-06-22T01:04:02;9;9;
69123;PMS5003;56232;53.384;-2.732;2023-06-22T01:06:29;9;9;
69123;PMS5003;56232;53.384;-2.732;2023-06-22T01:08:56;9;8;
69123;PMS5003;56232;53.384;-2.732;2023-06-22T01:11:19;10;10;
69123;PMS5003;56232;53.384;-2.732;2023-06-22T01:13:45;8;8;
69123;PMS5003;56232;53.384;-2.732;2023-06-22T01:16:10;7;7;
69123;PMS5003;56232;53.384;-2.732;2023-06-22T01:18:36;8;8;
69123;PMS5003;56232;53.384;-2.732;2023-06-22T01:21:01;7;7;
69123;PMS5003;56232;53.384;-2.732;2023-06-22T01:23:29;7;6;
69123;PMS5003;56232;53.384;-2.732;2023-06-22T01:25:54;9;8;
69123;PMS5003;56232;53.384;-2.732;2023-06-22T01:28:23;7;7;
69123;PMS5003;56232;53.384;-2.732;2023-06-22T01:30:45;10;9;
69123;PMS5003;56232;53.384;-2.732;2023-06-22T01:33:10;8;8;
69123;PMS5003;56232;53.384;-2.732;2023-06-22T01:35:35;9;9;
69123;PMS5003;56232;53.384;-2.732;2023-06-22T01:38:01;10;10;
69123;PMS5003;56232;53.384;-2.732;2023-06-22T01:40:26;9;9;
69123;PMS5003;56232;53.384;-2.732;2023-06-22T01:42:52;9;9;
69123;PMS5003;56232;53.384;-2.732;2023-06-22T01:45:18;9;9;
69123;PMS5003;56232;53.384;-2.732;2023-06-22T01:47:43;8;8;
69123;PMS5003;56232;53.384;-2.732;2023-06-22T01:50:09;10;10;
69123;PMS5003;56232;53.384;-2.732;2023-06-22T01:52:34;9;9;
69123;PMS5003;56232;53.384;-2.732;2023-06-22T01:54:59;10;10;
69123;PMS5003;56232;53.384;-2.732;2023-06-22T01:57:25;11;11;
69123;PMS5003;56232;53.384;-2.732;2023-06-22T01:59:52;10;10;
69123;PMS5003;56232;53.384;-2.732;2023-06-22T02:02:16;10;10;
69123;PMS5003;56232;53.384;-2.732;2023-06-22T02:04:43;10;10;
69123;PMS5003;56232;53.384;-2.732;2023-06-22T02:07:09;13;13;
69123;PMS5003;56232;53.384;-2.732;2023-06-22T02:09:33;11;11;
69123;PMS5003;56232;53.384;-2.732;2023-06-22T02:11:59;12;12;
69123;PMS5003;56232;53.384;-2.732;2023-06-22T02:14:25;9;9;
69123;PMS5003;56232;53.384;-2.732;2023-06-22T02:16:50;11;11;
69123;PMS5003;56232;53.384;-2.732;2023-06-22T02:19:16;12;12;
69123;PMS5003;56232;53.384;-2.732;2023-06-22T02:21:41;12;12;
69123;PMS5003;56232;53.384;-2.732;2023-06-22T02:24:07;13;13;
69123;PMS5003;56232;53.384;-2.732;2023-06-22T02:26:33;15;13;
69123;PMS5003;56232;53.384;-2.732;2023-06-22T02:28:58;14;13;
69123;PMS5003;56232;53.384;-2.732;2023-06-22T02:31:24;15;14;
69123;PMS5003;56232;53.384;-2.732;2023-06-22T02:33:50;14;14;
69123;PMS5003;56232;53.384;-2.732;2023-06-22T02:36:15;16;16;
69123;PMS5003;56232;53.384;-2.732;2023-06-22T02:38:41;13;13;
69123;PMS5003;56232;53.384;-2.732;2023-06-22T02:41:07;15;13;
69123;PMS5003;56232;53.384;-2.732;2023-06-22T02:43:32;14;14;
69123;PMS5003;56232;53.384;-2.732;2023-06-22T02:45:58;12;12;
69123;PMS5003;56232;53.384;-2.732;2023-06-22T02:48:23;11;11;
69123;PMS5003;56232;53.384;-2.732;2023-06-22T02:50:49;13;13;
69123;PMS5003;56232;53.384;-2.732;2023-06-22T02:53:15;11;11;
69123;PMS5003;56232;53.384;-2.732;2023-06-22T02:55:41;11;11;
69123;PMS5003;56232;53.384;-2.732;2023-06-22T02:58:06;11;11;
69123;PMS5003;56232;53.384;-2.732;2023-06-22T03:00:32;11;11;
69123;PMS5003;56232;53.384;-2.732;2023-06-22T03:02:57;12;11;
69123;PMS5003;56232;53.384;-2.732;2023-06-22T03:05:23;12;12;
69123;PMS5003;56232;53.384;-2.732;2023-06-22T03:07:49;13;12;
69123;PMS5003;56232;53.384;-2.732;2023-06-22T03:10:15;12;11;
69123;PMS5003;56232;53.384;-2.732;2023-06-22T03:12:40;11;10;
69123;PMS5003;56232;53.384;-2.732;2023-06-22T03:15:07;11;11;
69123;PMS5003;56232;53.384;-2.732;2023-06-22T03:17:32;11;11;
69123;PMS5003;56232;53.384;-2.732;2023-06-22T03:19:57;12;11;
69123;PMS5003;56232;53.384;-2.732;2023-06-22T03:22:23;12;12;
69123;PMS5003;56232;53.384;-2.732;2023-06-22T03:24:49;9;9;
69123;PMS5003;56232;53.384;-2.732;2023-06-22T03:27:14;10;10;
69123;PMS5003;56232;53.384;-2.732;2023-06-22T03:29:40;11;11;
69123;PMS5003;56232;53.384;-2.732;2023-06-22T03:32:06;9;9;
69123;PMS5003;56232;53.384;-2.732;2023-06-22T03:34:32;11;10;
69123;PMS5003;56232;53.384;-2.732;2023-06-22T03:36:57;11;11;
69123;PMS5003;56232;53.384;-2.732;2023-06-22T03:39:22;10;9;
69123;PMS5003;56232;53.384;-2.732;2023-06-22T03:41:48;11;11;
69123;PMS5003;56232;53.384;-2.732;2023-06-22T03:44:14;9;9;
69123;PMS5003;56232;53.384;-2.732;2023-06-22T03:46:39;11;10;
69123;PMS5003;56232;53.384;-2.732;2023-06-22T03:49:05;10;10;
69123;PMS5003;56232;53.384;-2.732;2023-06-22T03:51:32;10;10;
69123;PMS5003;56232;53.384;-2.732;2023-06-22T03:53:56;9;9;
69123;PMS5003;56232;53.384;-2.732;2023-06-22T03:56:22;9;9;
69123;PMS5003;56232;53.384;-2.732;2023-06-22T03:58:47;11;11;
69123;PMS5003;56232;53.384;-2.732;2023-06-22T04:01:13;11;11;
69123;PMS5003;56232;53.384;-2.732;2023-06-22T04:03:39;11;10;
69123;PMS5003;56232;53.384;-2.732;2023-06-22T04:06:04;9;9;
69123;PMS5003;56232;53.384;-2.732;2023-06-22T04:08:31;9;9;
69123;PMS5003;56232;53.384;-2.732;2023-06-22T04:10:56;9;9;
69123;PMS5003;56232;53.384;-2.732;2023-06-22T04:13:21;8;8;
69123;PMS5003;56232;53.384;-2.732;2023-06-22T04:15:47;12;11;
69123;PMS5003;56232;53.384;-2.732;2023-06-22T04:18:12;14;12;
69123;PMS5003;56232;53.384;-2.732;2023-06-22T04:20:38;12;11;
69123;PMS5003;56232;53.384;-2.732;2023-06-22T04:23:03;10;10;
69123;PMS5003;56232;53.384;-2.732;2023-06-22T04:25:29;12;9;
69123;PMS5003;56232;53.384;-2.732;2023-06-22T04:27:54;12;11;
69123;PMS5003;56232;53.384;-2.732;2023-06-22T04:30:19;11;10;
69123;PMS5003;56232;53.384;-2.732;2023-06-22T04:32:45;9;9;
69123;PMS5003;56232;53.384;-2.732;2023-06-22T04:35:11;10;9;
69123;PMS5003;56232;53.384;-2.732;2023-06-22T04:37:37;10;10;
69123;PMS5003;56232;53.384;-2.732;2023-06-22T04:40:02;9;9;
69123;PMS5003;56232;53.384;-2.732;2023-06-22T04:42:28;11;10;
69123;PMS5003;56232;53.384;-2.732;2023-06-22T04:44:53;11;11;
69123;PMS5003;56232;53.384;-2.732;2023-06-22T04:47:19;11;11;
69123;PMS5003;56232;53.384;-2.732;2023-06-22T04:49:44;15;13;
69123;PMS5003;56232;53.384;-2.732;2023-06-22T04:52:10;11;11;
69123;PMS5003;56232;53.384;-2.732;2023-06-22T04:54:36;12;12;
69123;PMS5003;56232;53.384;-2.732;2023-06-22T04:57:01;11;11;
69123;PMS5003;56232;53.384;-2.732;2023-06-22T04:59:27;11;11;
69123;PMS5003;56232;53.384;-2.732;2023-06-22T05:01:52;10;10;
69123;PMS5003;56232;53.384;-2.732;2023-06-22T05:04:18;12;12;
69123;PMS5003;56232;53.384;-2.732;2023-06-22T05:06:43;11;11;
69123;PMS5003;56232;53.384;-2.732;2023-06-22T05:09:09;12;12;
69123;PMS5003;56232;53.384;-2.732;2023-06-22T05:11:35;11;10;
69123;PMS5003;56232;53.384;-2.732;2023-06-22T05:14:00;10;10;
69123;PMS5003;56232;53.384;-2.732;2023-06-22T05:16:26;12;11;
69123;PMS5003;56232;53.384;-2.732;2023-06-22T05:18:52;12;12;
69123;PMS5003;56232;53.384;-2.732;2023-06-22T05:21:17;10;10;
69123;PMS5003;56232;53.384;-2.732;2023-06-22T05:23:43;9;9;
69123;PMS5003;56232;53.384;-2.732;2023-06-22T05:26:08;10;10;
69123;PMS5003;56232;53.384;-2.732;2023-06-22T05:28:34;7;7;
69123;PMS5003;56232;53.384;-2.732;2023-06-22T05:30:59;11;10;
69123;PMS5003;56232;53.384;-2.732;2023-06-22T05:33:25;10;10;
69123;PMS5003;56232;53.384;-2.732;2023-06-22T05:35:50;10;10;
69123;PMS5003;56232;53.384;-2.732;2023-06-22T05:38:16;10;10;
69123;PMS5003;56232;53.384;-2.732;2023-06-22T05:40:41;10;9;
69123;PMS5003;56232;53.384;-2.732;2023-06-22T05:43:07;7;7;
69123;PMS5003;56232;53.384;-2.732;2023-06-22T05:45:32;12;11;
69123;PMS5003;56232;53.384;-2.732;2023-06-22T05:47:58;11;11;
69123;PMS5003;56232;53.384;-2.732;2023-06-22T05:50:23;9;9;
69123;PMS5003;56232;53.384;-2.732;2023-06-22T05:52:49;11;10;
69123;PMS5003;56232;53.384;-2.732;2023-06-22T05:55:14;10;10;
69123;PMS5003;56232;53.384;-2.732;2023-06-22T05:57:40;11;11;
69123;PMS5003;56232;53.384;-2.732;2023-06-22T06:00:06;9;9;
69123;PMS5003;56232;53.384;-2.732;2023-06-22T06:02:32;9;9;
69123;PMS5003;56232;53.384;-2.732;2023-06-22T06:04:56;10;10;
69123;PMS5003;56232;53.384;-2.732;2023-06-22T06:07:22;11;11;
69123;PMS5003;56232;53.384;-2.732;2023-06-22T06:09:47;11;10;
69123;PMS5003;56232;53.384;-2.732;2023-06-22T06:12:13;10;10;
69123;PMS5003;56232;53.384;-2.732;2023-06-22T06:14:38;9;8;
69123;PMS5003;56232;53.384;-2.732;2023-06-22T06:17:04;9;8;
69123;PMS5003;56232;53.384;-2.732;2023-06-22T06:19:30;10;10;
69123;PMS5003;56232;53.384;-2.732;2023-06-22T06:21:55;8;8;
69123;PMS5003;56232;53.384;-2.732;2023-06-22T06:24:21;10;10;
69123;PMS5003;56232;53.384;-2.732;2023-06-22T06:26:47;10;10;
69123;PMS5003;56232;53.384;-2.732;2023-06-22T06:29:12;11;11;
69123;PMS5003;56232;53.384;-2.732;2023-06-22T06:31:38;11;11;
69123;PMS5003;56232;53.384;-2.732;2023-06-22T06:34:03;9;9;
69123;PMS5003;56232;53.384;-2.732;2023-06-22T06:36:29;9;9;
69123;PMS5003;56232;53.384;-2.732;2023-06-22T06:38:54;10;10;
69123;PMS5003;56232;53.384;-2.732;2023-06-22T06:41:20;10;10;
69123;PMS5003;56232;53.384;-2.732;2023-06-22T06:43:45;14;12;
69123;PMS5003;56232;53.384;-2.732;2023-06-22T06:46:11;11;10;
69123;PMS5003;56232;53.384;-2.732;2023-06-22T06:48:36;11;11;
69123;PMS5003;56232;53.384;-2.732;2023-06-22T06:51:02;9;9;
69123;PMS5003;56232;53.384;-2.732;2023-06-22T06:53:27;11;11;
69123;PMS5003;56232;53.384;-2.732;2023-06-22T06:55:53;11;11;
69123;PMS5003;56232;53.384;-2.732;2023-06-22T06:58:19;11;10;
69123;PMS5003;56232;53.384;-2.732;2023-06-22T07:00:44;13;13;
69123;PMS5003;56232;53.384;-2.732;2023-06-22T07:03:10;12;11;
69123;PMS5003;56232;53.384;-2.732;2023-06-22T07:05:35;10;10;
69123;PMS5003;56232;53.384;-2.732;2023-06-22T07:08:01;13;13;
69123;PMS5003;56232;53.384;-2.732;2023-06-22T07:10:26;12;12;
69123;PMS5003;56232;53.384;-2.732;2023-06-22T07:12:52;12;12;
69123;PMS5003;56232;53.384;-2.732;2023-06-22T07:15:17;13;13;
69123;PMS5003;56232;53.384;-2.732;2023-06-22T07:17:43;13;13;
69123;PMS5003;56232;53.384;-2.732;2023-06-22T07:20:09;10;10;
69123;PMS5003;56232;53.384;-2.732;2023-06-22T07:22:34;11;10;
69123;PMS5003;56232;53.384;-2.732;2023-06-22T07:25:00;9;9;
69123;PMS5003;56232;53.384;-2.732;2023-06-22T07:27:25;12;12;
69123;PMS5003;56232;53.384;-2.732;2023-06-22T07:29:51;9;9;
69123;PMS5003;56232;53.384;-2.732;2023-06-22T07:32:16;10;10;
69123;PMS5003;56232;53.384;-2.732;2023-06-22T07:34:42;9;9;
69123;PMS5003;56232;53.384;-2.732;2023-06-22T07:37:07;10;10;
69123;PMS5003;56232;53.384;-2.732;2023-06-22T07:39:33;9;9;
69123;PMS5003;56232;53.384;-2.732;2023-06-22T07:41:58;9;8;
69123;PMS5003;56232;53.384;-2.732;2023-06-22T07:44:24;7;7;
69123;PMS5003;56232;53.384;-2.732;2023-06-22T07:46:49;9;9;
69123;PMS5003;56232;53.384;-2.732;2023-06-22T07:49:15;9;9;
69123;PMS5003;56232;53.384;-2.732;2023-06-22T07:51:40;8;8;
69123;PMS5003;56232;53.384;-2.732;2023-06-22T07:54:06;7;7;
69123;PMS5003;56232;53.384;-2.732;2023-06-22T07:56:32;7;6;
69123;PMS5003;56232;53.384;-2.732;2023-06-22T07:58:57;6;6;
69123;PMS5003;56232;53.384;-2.732;2023-06-22T08:01:22;6;6;
69123;PMS5003;56232;53.384;-2.732;2023-06-22T08:03:48;7;7;
69123;PMS5003;56232;53.384;-2.732;2023-06-22T08:06:13;5;5;
69123;PMS5003;56232;53.384;-2.732;2023-06-22T08:08:39;7;7;
69123;PMS5003;56232;53.384;-2.732;2023-06-22T08:11:05;9;8;
69123;PMS5003;56232;53.384;-2.732;2023-06-22T08:13:30;9;9;
69123;PMS5003;56232;53.384;-2.732;2023-06-22T08:15:55;7;7;
69123;PMS5003;56232;53.384;-2.732;2023-06-22T08:18:21;5;5;
69123;PMS5003;56232;53.384;-2.732;2023-06-22T08:20:46;5;5;
69123;PMS5003;56232;53.384;-2.732;2023-06-22T08:23:12;5;5;
69123;PMS5003;56232;53.384;-2.732;2023-06-22T08:25:37;5;5;
69123;PMS5003;56232;53.384;-2.732;2023-06-22T08:28:03;6;5;
69123;PMS5003;56232;53.384;-2.732;2023-06-22T08:30:29;6;6;
69123;PMS5003;56232;53.384;-2.732;2023-06-22T08:32:54;7;7;
69123;PMS5003;56232;53.384;-2.732;2023-06-22T08:35:19;5;5;
69123;PMS5003;56232;53.384;-2.732;2023-06-22T08:37:45;5;5;
69123;PMS5003;56232;53.384;-2.732;2023-06-22T08:40:11;6;6;
69123;PMS5003;56232;53.384;-2.732;2023-06-22T08:42:37;6;6;
69123;PMS5003;56232;53.384;-2.732;2023-06-22T08:45:02;4;4;
69123;PMS5003;56232;53.384;-2.732;2023-06-22T08:47:27;4;4;
69123;PMS5003;56232;53.384;-2.732;2023-06-22T08:49:53;6;6;
69123;PMS5003;56232;53.384;-2.732;2023-06-22T08:52:19;6;5;
69123;PMS5003;56232;53.384;-2.732;2023-06-22T08:54:44;8;7;
69123;PMS5003;56232;53.384;-2.732;2023-06-22T08:57:09;6;5;
69123;PMS5003;56232;53.384;-2.732;2023-06-22T08:59:34;6;6;
69123;PMS5003;56232;53.384;-2.732;2023-06-22T09:02:00;6;6;
69123;PMS5003;56232;53.384;-2.732;2023-06-22T09:04:25;5;5;
69123;PMS5003;56232;53.384;-2.732;2023-06-22T09:06:51;5;5;
69123;PMS5003;56232;53.384;-2.732;2023-06-22T09:09:16;4;4;
69123;PMS5003;56232;53.384;-2.732;2023-06-22T09:11:42;5;5;
69123;PMS5003;56232;53.384;-2.732;2023-06-22T09:14:07;5;5;
69123;PMS5003;56232;53.384;-2.732;2023-06-22T09:16:32;9;9;
69123;PMS5003;56232;53.384;-2.732;2023-06-22T09:18:58;5;5;
69123;PMS5003;56232;53.384;-2.732;2023-06-22T09:21:23;5;5;
69123;PMS5003;56232;53.384;-2.732;2023-06-22T09:23:49;5;5;
69123;PMS5003;56232;53.384;-2.732;2023-06-22T09:26:14;4;4;
69123;PMS5003;56232;53.384;-2.732;2023-06-22T09:28:40;5;5;
69123;PMS5003;56232;53.384;-2.732;2023-06-22T09:31:05;6;6;
69123;PMS5003;56232;53.384;-2.732;2023-06-22T09:33:31;6;5;
69123;PMS5003;56232;53.384;-2.732;2023-06-22T09:35:56;7;7;
69123;PMS5003;56232;53.384;-2.732;2023-06-22T09:38:22;7;6;
69123;PMS5003;56232;53.384;-2.732;2023-06-22T09:40:47;6;6;
69123;PMS5003;56232;53.384;-2.732;2023-06-22T09:43:13;5;5;
69123;PMS5003;56232;53.384;-2.732;2023-06-22T09:45:38;5;5;
69123;PMS5003;56232;53.384;-2.732;2023-06-22T09:48:04;5;5;
69123;PMS5003;56232;53.384;-2.732;2023-06-22T09:50:30;6;6;
69123;PMS5003;56232;53.384;-2.732;2023-06-22T09:52:55;4;4;
69123;PMS5003;56232;53.384;-2.732;2023-06-22T09:55:20;5;5;
69123;PMS5003;56232;53.384;-2.732;2023-06-22T09:57:46;6;6;
69123;PMS5003;56232;53.384;-2.732;2023-06-22T10:00:12;6;5;
69123;PMS5003;56232;53.384;-2.732;2023-06-22T10:02:37;5;5;
69123;PMS5003;56232;53.384;-2.732;2023-06-22T10:05:02;7;7;
69123;PMS5003;56232;53.384;-2.732;2023-06-22T10:07:28;7;7;
69123;PMS5003;56232;53.384;-2.732;2023-06-22T10:09:53;6;6;
69123;PMS5003;56232;53.384;-2.732;2023-06-22T10:12:19;7;6;
69123;PMS5003;56232;53.384;-2.732;2023-06-22T10:14:44;7;7;
69123;PMS5003;56232;53.384;-2.732;2023-06-22T10:17:10;8;7;
69123;PMS5003;56232;53.384;-2.732;2023-06-22T10:19:35;7;7;
69123;PMS5003;56232;53.384;-2.732;2023-06-22T10:22:01;6;6;
69123;PMS5003;56232;53.384;-2.732;2023-06-22T10:24:26;6;6;
69123;PMS5003;56232;53.384;-2.732;2023-06-22T10:26:52;6;5;
69123;PMS5003;56232;53.384;-2.732;2023-06-22T10:29:18;5;5;
69123;PMS5003;56232;53.384;-2.732;2023-06-22T10:31:43;8;7;
69123;PMS5003;56232;53.384;-2.732;2023-06-22T10:34:08;5;5;
69123;PMS5003;56232;53.384;-2.732;2023-06-22T10:36:34;7;6;
69123;PMS5003;56232;53.384;-2.732;2023-06-22T10:38:59;8;7;
69123;PMS5003;56232;53.384;-2.732;2023-06-22T10:41:25;5;5;
69123;PMS5003;56232;53.384;-2.732;2023-06-22T10:43:50;6;6;
69123;PMS5003;56232;53.384;-2.732;2023-06-22T10:46:16;8;8;
69123;PMS5003;56232;53.384;-2.732;2023-06-22T10:48:41;9;7;
69123;PMS5003;56232;53.384;-2.732;2023-06-22T10:51:07;7;7;
69123;PMS5003;56232;53.384;-2.732;2023-06-22T10:53:32;6;6;
69123;PMS5003;56232;53.384;-2.732;2023-06-22T10:55:58;7;7;
69123;PMS5003;56232;53.384;-2.732;2023-06-22T10:58:23;8;8;
69123;PMS5003;56232;53.384;-2.732;2023-06-22T11:00:49;8;8;
69123;PMS5003;56232;53.384;-2.732;2023-06-22T11:03:15;8;8;
69123;PMS5003;56232;53.384;-2.732;2023-06-22T11:05:40;7;7;
69123;PMS5003;56232;53.384;-2.732;2023-06-22T11:08:05;6;6;
69123;PMS5003;56232;53.384;-2.732;2023-06-22T11:10:31;8;8;
69123;PMS5003;56232;53.384;-2.732;2023-06-22T11:12:56;6;6;
69123;PMS5003;56232;53.384;-2.732;2023-06-22T11:15:22;7;6;
69123;PMS5003;56232;53.384;-2.732;2023-06-22T11:17:47;7;6;
69123;PMS5003;56232;53.384;-2.732;2023-06-22T11:20:13;6;5;
69123;PMS5003;56232;53.384;-2.732;2023-06-22T11:22:38;7;7;
69123;PMS5003;56232;53.384;-2.732;2023-06-22T11:25:04;6;5;
69123;PMS5003;56232;53.384;-2.732;2023-06-22T11:27:30;9;9;
69123;PMS5003;56232;53.384;-2.732;2023-06-22T11:29:55;7;7;
69123;PMS5003;56232;53.384;-2.732;2023-06-22T11:32:21;9;9;
69123;PMS5003;56232;53.384;-2.732;2023-06-22T11:34:46;8;8;
69123;PMS5003;56232;53.384;-2.732;2023-06-22T11:37:12;8;8;
69123;PMS5003;56232;53.384;-2.732;2023-06-22T11:39:37;6;6;
69123;PMS5003;56232;53.384;-2.732;2023-06-22T11:42:02;6;6;
69123;PMS5003;56232;53.384;-2.732;2023-06-22T11:44:28;9;8;
69123;PMS5003;56232;53.384;-2.732;2023-06-22T11:46:55;7;7;
69123;PMS5003;56232;53.384;-2.732;2023-06-22T11:49:19;6;6;
69123;PMS5003;56232;53.384;-2.732;2023-06-22T11:51:45;8;8;
69123;PMS5003;56232;53.384;-2.732;2023-06-22T11:54:10;8;8;
69123;PMS5003;56232;53.384;-2.732;2023-06-22T11:56:36;9;8;
69123;PMS5003;56232;53.384;-2.732;2023-06-22T11:59:01;11;10;
69123;PMS5003;56232;53.384;-2.732;2023-06-22T12:01:27;7;7;
69123;PMS5003;56232;53.384;-2.732;2023-06-22T12:03:52;8;8;
69123;PMS5003;56232;53.384;-2.732;2023-06-22T12:06:17;8;8;
69123;PMS5003;56232;53.384;-2.732;2023-06-22T12:08:43;10;10;
69123;PMS5003;56232;53.384;-2.732;2023-06-22T12:11:08;8;8;
69123;PMS5003;56232;53.384;-2.732;2023-06-22T12:13:34;10;10;
69123;PMS5003;56232;53.384;-2.732;2023-06-22T12:16:00;8;8;
69123;PMS5003;56232;53.384;-2.732;2023-06-22T12:18:25;6;6;
69123;PMS5003;56232;53.384;-2.732;2023-06-22T12:20:51;6;6;
69123;PMS5003;56232;53.384;-2.732;2023-06-22T12:23:16;6;6;
69123;PMS5003;56232;53.384;-2.732;2023-06-22T12:25:41;7;7;
69123;PMS5003;56232;53.384;-2.732;2023-06-22T12:28:07;8;6;
69123;PMS5003;56232;53.384;-2.732;2023-06-22T12:30:33;8;7;
69123;PMS5003;56232;53.384;-2.732;2023-06-22T12:32:58;8;8;
69123;PMS5003;56232;53.384;-2.732;2023-06-22T12:35:23;10;10;
69123;PMS5003;56232;53.384;-2.732;2023-06-22T12:37:49;8;8;
69123;PMS5003;56232;53.384;-2.732;2023-06-22T12:40:14;8;8;
69123;PMS5003;56232;53.384;-2.732;2023-06-22T12:42:40;10;10;
69123;PMS5003;56232;53.384;-2.732;2023-06-22T12:45:06;7;7;
69123;PMS5003;56232;53.384;-2.732;2023-06-22T12:47:31;8;8;
69123;PMS5003;56232;53.384;-2.732;2023-06-22T12:49:56;9;9;
69123;PMS5003;56232;53.384;-2.732;2023-06-22T12:52:22;7;7;
69123;PMS5003;56232;53.384;-2.732;2023-06-22T12:54:48;8;8;
69123;PMS5003;56232;53.384;-2.732;2023-06-22T12:57:13;9;9;
69123;PMS5003;56232;53.384;-2.732;2023-06-22T12:59:38;9;9;
69123;PMS5003;56232;53.384;-2.732;2023-06-22T13:02:04;10;10;
69123;PMS5003;56232;53.384;-2.732;2023-06-22T13:04:30;8;8;
69123;PMS5003;56232;53.384;-2.732;2023-06-22T13:06:55;8;8;
69123;PMS5003;56232;53.384;-2.732;2023-06-22T13:09:21;8;8;
69123;PMS5003;56232;53.384;-2.732;2023-06-22T13:11:46;8;7;
69123;PMS5003;56232;53.384;-2.732;2023-06-22T13:14:11;11;10;
69123;PMS5003;56232;53.384;-2.732;2023-06-22T13:16:37;9;8;
69123;PMS5003;56232;53.384;-2.732;2023-06-22T13:19:02;9;9;
69123;PMS5003;56232;53.384;-2.732;2023-06-22T13:21:28;9;7;
69123;PMS5003;56232;53.384;-2.732;2023-06-22T13:23:53;10;10;
69123;PMS5003;56232;53.384;-2.732;2023-06-22T13:26:20;9;8;
69123;PMS5003;56232;53.384;-2.732;2023-06-22T13:28:44;8;8;
69123;PMS5003;56232;53.384;-2.732;2023-06-22T13:31:09;8;8;
69123;PMS5003;56232;53.384;-2.732;2023-06-22T13:33:35;10;9;
69123;PMS5003;56232;53.384;-2.732;2023-06-22T13:36:00;9;9;
69123;PMS5003;56232;53.384;-2.732;2023-06-22T13:38:26;8;7;
69123;PMS5003;56232;53.384;-2.732;2023-06-22T13:40:52;6;6;
69123;PMS5003;56232;53.384;-2.732;2023-06-22T13:43:17;8;8;
69123;PMS5003;56232;53.384;-2.732;2023-06-22T13:45:43;8;8;
69123;PMS5003;56232;53.384;-2.732;2023-06-22T13:48:08;9;8;
69123;PMS5003;56232;53.384;-2.732;2023-06-22T13:52:59;9;9;
69123;PMS5003;56232;53.384;-2.732;2023-06-22T13:55:25;10;9;
69123;PMS5003;56232;53.384;-2.732;2023-06-22T13:57:50;8;8;
69123;PMS5003;56232;53.384;-2.732;2023-06-22T14:00:16;9;9;
69123;PMS5003;56232;53.384;-2.732;2023-06-22T14:02:41;7;7;
69123;PMS5003;56232;53.384;-2.732;2023-06-22T14:05:07;8;7;
69123;PMS5003;56232;53.384;-2.732;2023-06-22T14:07:33;7;7;
69123;PMS5003;56232;53.384;-2.732;2023-06-22T14:09:59;9;8;
69123;PMS5003;56232;53.384;-2.732;2023-06-22T14:12:24;9;7;
69123;PMS5003;56232;53.384;-2.732;2023-06-22T14:14:49;8;8;
69123;PMS5003;56232;53.384;-2.732;2023-06-22T14:17:15;9;9;
69123;PMS5003;56232;53.384;-2.732;2023-06-22T14:19:40;9;8;
69123;PMS5003;56232;53.384;-2.732;2023-06-22T14:22:05;8;8;
69123;PMS5003;56232;53.384;-2.732;2023-06-22T14:24:31;8;8;
69123;PMS5003;56232;53.384;-2.732;2023-06-22T14:26:56;8;8;
69123;PMS5003;56232;53.384;-2.732;2023-06-22T14:29:22;9;9;
69123;PMS5003;56232;53.384;-2.732;2023-06-22T14:31:48;9;9;
69123;PMS5003;56232;53.384;-2.732;2023-06-22T14:34:13;8;8;
69123;PMS5003;56232;53.384;-2.732;2023-06-22T14:36:39;8;8;
69123;PMS5003;56232;53.384;-2.732;2023-06-22T14:39:04;7;7;
69123;PMS5003;56232;53.384;-2.732;2023-06-22T14:41:30;7;7;
69123;PMS5003;56232;53.384;-2.732;2023-06-22T14:43:55;8;8;
69123;PMS5003;56232;53.384;-2.732;2023-06-22T14:46:21;8;8;
69123;PMS5003;56232;53.384;-2.732;2023-06-22T14:48:46;8;8;
69123;PMS5003;56232;53.384;-2.732;2023-06-22T14:51:12;9;8;
69123;PMS5003;56232;53.384;-2.732;2023-06-22T14:53:37;8;8;
69123;PMS5003;56232;53.384;-2.732;2023-06-22T14:56:03;7;7;
69123;PMS5003;56232;53.384;-2.732;2023-06-22T14:58:29;9;9;
69123;PMS5003;56232;53.384;-2.732;2023-06-22T15:00:54;7;7;
69123;PMS5003;56232;53.384;-2.732;2023-06-22T15:03:20;7;7;
69123;PMS5003;56232;53.384;-2.732;2023-06-22T15:05:45;7;7;
69123;PMS5003;56232;53.384;-2.732;2023-06-22T15:08:11;8;8;
69123;PMS5003;56232;53.384;-2.732;2023-06-22T15:10:36;9;8;
69123;PMS5003;56232;53.384;-2.732;2023-06-22T15:13:02;7;6;
69123;PMS5003;56232;53.384;-2.732;2023-06-22T15:15:27;7;7;
69123;PMS5003;56232;53.384;-2.732;2023-06-22T15:17:53;8;7;
69123;PMS5003;56232;53.384;-2.732;2023-06-22T15:20:19;7;7;
69123;PMS5003;56232;53.384;-2.732;2023-06-22T15:22:44;9;9;
69123;PMS5003;56232;53.384;-2.732;2023-06-22T15:25:10;6;6;
69123;PMS5003;56232;53.384;-2.732;2023-06-22T15:27:35;7;7;
69123;PMS5003;56232;53.384;-2.732;2023-06-22T15:30:01;6;6;
69123;PMS5003;56232;53.384;-2.732;2023-06-22T15:32:26;8;8;
69123;PMS5003;56232;53.384;-2.732;2023-06-22T15:34:52;8;8;
69123;PMS5003;56232;53.384;-2.732;2023-06-22T15:37:17;7;7;
69123;PMS5003;56232;53.384;-2.732;2023-06-22T15:39:43;5;5;
69123;PMS5003;56232;53.384;-2.732;2023-06-22T15:42:08;10;7;
69123;PMS5003;56232;53.384;-2.732;2023-06-22T15:44:34;9;8;
69123;PMS5003;56232;53.384;-2.732;2023-06-22T15:46:59;9;9;
69123;PMS5003;56232;53.384;-2.732;2023-06-22T15:49:25;6;6;
69123;PMS5003;56232;53.384;-2.732;2023-06-22T15:51:50;7;7;
69123;PMS5003;56232;53.384;-2.732;2023-06-22T15:54:16;9;9;
69123;PMS5003;56232;53.384;-2.732;2023-06-22T15:56:41;6;6;
69123;PMS5003;56232;53.384;-2.732;2023-06-22T15:59:07;7;6;
69123;PMS5003;56232;53.384;-2.732;2023-06-22T16:01:32;10;9;
69123;PMS5003;56232;53.384;-2.732;2023-06-22T16:03:58;7;7;
69123;PMS5003;56232;53.384;-2.732;2023-06-22T16:06:23;6;6;
69123;PMS5003;56232;53.384;-2.732;2023-06-22T16:08:49;8;7;
69123;PMS5003;56232;53.384;-2.732;2023-06-22T16:11:14;8;7;
69123;PMS5003;56232;53.384;-2.732;2023-06-22T16:13:40;6;6;